Briefing drone pour Pleaux

Rechercher une autre localisation

Conditions de vol :


Nous sommes le : Samedi 15 mai 2021
Il est 01:23 UTC (03:24 LT)

Lever de soleil : 03:54 UTC (05:54 LT)
Coucher de soleil : 19:40 UTC (21:40 LT)

Météo

L'essentiel des conditions de vol

VIGILANCE MÉTÉO FRANCE - Cantal (15)
Pas de vigilances particulieres
CARTE TEMSI
CARTES DES FRONTS
METAR de LFLW
LFLW 150100Z AUTO 08003KT CAVOK 07/05 Q1013

Date d'émission: 15/05/2021
Heure d'émission: 01:00 UTC
Vent: 080° pour 3 KT (6 km/h)
Visibilité horizontale: > 10 km
Plafond : Plafond et visibilité OK (CAVOK)
Température: 7 °C
Point de rosée: 5 °C
Humidité: 87%
Pression (QNH): 1013 hPa
Prévision 24h pour Aurillac (18 km)
Vent : 185° pour 1 KT (2 km/h)
Temperature Maxi: 8 °C
Temperature Min: 8 °C
Humidité : 99%
Condition : Légère pluie



Warning: count(): Parameter must be an array or an object that implements Countable in /homepages/6/d509196549/htdocs/droneoxygene/briefing.php on line 743
WEBCAM POUR PLEAUX

Réglementation

Voler en sécurité

CARTES AERONAUTIQUE 1/500.000
CARTES VAC (LFLW)
SUP AIP




Chargement des AIP...
NOTAM (PLEAUX + Terrain à proximité / FIR )




Chargement des NOTAMS...
CONTACT PREFECTURE 15


Avertissement : Les données mises à disposition sont indicatives. Oxygène Drone ne pourra être tenu responsable de dégâts causés aux biens et aux personnes.